createdAt,value
2022-09-11T00:01:37.465Z,4.90
2022-09-11T00:04:06.338Z,6.10
2022-09-11T00:06:34.545Z,6.97
2022-09-11T00:09:07.491Z,5.93
2022-09-11T00:11:41.453Z,6.47
2022-09-11T00:14:11.152Z,11.97
2022-09-11T00:16:42.435Z,5.70
2022-09-11T00:19:14.083Z,5.63
2022-09-11T00:21:42.149Z,5.73
2022-09-11T00:24:11.260Z,6.47
2022-09-11T00:26:42.413Z,5.60
2022-09-11T00:29:10.882Z,13.93
2022-09-11T00:31:39.145Z,12.30
2022-09-11T00:34:07.851Z,30.47
2022-09-11T00:36:37.582Z,19.40
2022-09-11T00:39:05.692Z,6.20
2022-09-11T00:41:39.336Z,6.00
2022-09-11T00:44:29.865Z,74.77
2022-09-11T00:47:01.100Z,36.97
2022-09-11T00:49:36.015Z,6.10
2022-09-11T00:52:10.680Z,6.00
2022-09-11T00:54:46.268Z,5.43
2022-09-11T00:57:15.385Z,5.00
2022-09-11T00:59:48.118Z,5.47
2022-09-11T01:02:25.508Z,7.43
2022-09-11T01:04:56.801Z,6.97
2022-09-11T01:07:27.863Z,5.70
2022-09-11T01:09:56.157Z,5.40
2022-09-11T01:12:36.419Z,5.07
2022-09-11T01:15:10.577Z,6.70
2022-09-11T01:17:49.265Z,5.37
2022-09-11T01:20:37.074Z,4.80
2022-09-11T01:23:43.136Z,5.43
2022-09-11T01:26:43.426Z,5.00
2022-09-11T01:29:22.412Z,5.97
2022-09-11T01:32:00.308Z,5.43
2022-09-11T01:34:36.704Z,5.23
2022-09-11T01:37:09.677Z,6.40
2022-09-11T01:39:45.857Z,19.33
2022-09-11T01:42:21.480Z,5.70
2022-09-11T01:44:55.598Z,6.10
2022-09-11T01:47:24.108Z,5.90
2022-09-11T01:49:59.614Z,6.10
2022-09-11T01:52:36.973Z,6.03
2022-09-11T01:55:13.106Z,5.93
2022-09-11T01:57:50.398Z,10.67
2022-09-11T02:00:19.952Z,6.23
2022-09-11T02:02:59.389Z,5.93
2022-09-11T02:05:33.611Z,6.07
2022-09-11T02:08:08.144Z,5.97
2022-09-11T02:10:48.373Z,6.17
2022-09-11T02:13:27.844Z,6.13
2022-09-11T02:16:08.104Z,6.07
2022-09-11T02:18:46.575Z,6.13
2022-09-11T02:21:14.351Z,6.10
2022-09-11T02:23:42.397Z,6.23
2022-09-11T02:26:14.043Z,6.47
2022-09-11T02:28:41.984Z,6.13
2022-09-11T02:31:11.206Z,11.40
2022-09-11T02:33:39.258Z,6.07
2022-09-11T02:36:35.539Z,5.90
2022-09-11T02:39:24.915Z,5.67
2022-09-11T02:42:15.866Z,5.50
2022-09-11T02:44:55.132Z,5.73
2022-09-11T02:47:42.543Z,6.17
2022-09-11T02:50:26.387Z,5.83
2022-09-11T02:53:07.532Z,6.20
2022-09-11T02:55:53.602Z,5.90
2022-09-11T02:58:28.211Z,5.90
2022-09-11T03:00:59.714Z,6.53
2022-09-11T03:03:28.863Z,6.40
2022-09-11T03:05:57.234Z,6.77
2022-09-11T03:08:24.999Z,6.40
2022-09-11T03:10:52.793Z,7.67
2022-09-11T03:13:20.570Z,7.73
2022-09-11T03:15:48.571Z,9.43
2022-09-11T03:18:16.579Z,10.23
2022-09-11T03:20:47.812Z,10.43
2022-09-11T03:23:15.564Z,11.57
2022-09-11T03:25:43.373Z,11.60
2022-09-11T03:28:11.487Z,12.17
2022-09-11T03:30:41.457Z,11.50
2022-09-11T03:33:09.780Z,14.73
2022-09-11T03:35:38.491Z,14.83
2022-09-11T03:38:07.548Z,14.63
2022-09-11T03:40:35.382Z,15.97
2022-09-11T03:43:03.159Z,15.67
2022-09-11T03:45:31.062Z,16.37
2022-09-11T03:47:58.971Z,17.83
2022-09-11T03:50:27.715Z,16.20
2022-09-11T03:52:55.493Z,15.90
2022-09-11T03:55:24.726Z,14.80
2022-09-11T03:57:52.479Z,16.00
2022-09-11T04:00:20.420Z,15.80
2022-09-11T04:02:48.199Z,16.33
2022-09-11T04:05:16.272Z,14.93
2022-09-11T04:07:44.051Z,16.93
2022-09-11T04:10:12.406Z,15.93
2022-09-11T04:12:41.947Z,16.70
2022-09-11T04:15:10.819Z,18.80
2022-09-11T04:17:38.620Z,18.23
2022-09-11T04:20:07.469Z,18.30
2022-09-11T04:22:35.598Z,18.63
2022-09-11T04:25:03.363Z,18.40
2022-09-11T04:27:31.570Z,19.37
2022-09-11T04:30:00.679Z,21.07
2022-09-11T04:32:29.373Z,22.23
2022-09-11T04:34:57.182Z,21.67
2022-09-11T04:37:25.100Z,20.73
2022-09-11T04:39:53.284Z,19.27
2022-09-11T04:42:21.198Z,18.63
2022-09-11T04:44:49.024Z,16.13
2022-09-11T04:47:18.699Z,18.90
2022-09-11T04:49:47.058Z,16.77
2022-09-11T04:52:15.358Z,19.17
2022-09-11T04:54:43.333Z,17.57
2022-09-11T04:57:11.110Z,17.30
2022-09-11T04:59:38.931Z,18.60
2022-09-11T05:02:06.776Z,17.80
2022-09-11T05:04:35.992Z,16.37
2022-09-11T05:07:03.815Z,17.47
2022-09-11T05:09:31.588Z,17.63
2022-09-11T05:11:59.342Z,17.70
2022-09-11T05:14:28.155Z,18.77
2022-09-11T05:16:55.908Z,19.43
2022-09-11T05:19:24.536Z,19.40
2022-09-11T05:21:53.750Z,19.27
2022-09-11T05:24:21.486Z,18.50
2022-09-11T05:26:49.278Z,18.23
2022-09-11T05:29:18.536Z,21.43
2022-09-11T05:31:47.709Z,19.87
2022-09-11T05:34:15.591Z,19.30
2022-09-11T05:36:43.432Z,21.80
2022-09-11T05:39:12.628Z,21.20
2022-09-11T05:41:40.749Z,20.63
2022-09-11T05:44:08.539Z,20.03
2022-09-11T05:46:36.316Z,22.90
2022-09-11T05:49:04.397Z,23.00
2022-09-11T05:51:35.689Z,19.87
2022-09-11T05:54:04.223Z,20.83
2022-09-11T05:56:33.309Z,23.93
2022-09-11T05:59:02.596Z,23.50
2022-09-11T06:01:31.111Z,22.97
2022-09-11T06:03:59.089Z,24.23
2022-09-11T06:06:26.995Z,27.33
2022-09-11T06:08:56.069Z,24.80
2022-09-11T06:11:23.918Z,26.50
2022-09-11T06:13:53.117Z,23.97
2022-09-11T06:16:23.588Z,25.10
2022-09-11T06:18:53.086Z,20.97
2022-09-11T06:21:24.586Z,23.77
2022-09-11T06:23:54.155Z,21.07
2022-09-11T06:26:24.862Z,23.23
2022-09-11T06:28:55.458Z,23.73
2022-09-11T06:31:26.589Z,21.77
2022-09-11T06:33:54.960Z,21.33
2022-09-11T06:36:27.007Z,22.97
2022-09-11T06:38:56.834Z,21.57
2022-09-11T06:41:26.429Z,21.67
2022-09-11T06:43:55.833Z,18.93
2022-09-11T06:46:26.021Z,19.77
2022-09-11T06:48:54.649Z,21.20
2022-09-11T06:51:24.434Z,19.30
2022-09-11T06:53:56.250Z,20.43
2022-09-11T06:56:24.045Z,20.77
2022-09-11T06:58:51.900Z,18.67
2022-09-11T07:01:23.503Z,17.83
2022-09-11T07:03:53.847Z,18.80
2022-09-11T07:06:24.648Z,19.50
2022-09-11T07:08:54.609Z,17.87
2022-09-11T07:11:22.666Z,19.40
2022-09-11T07:13:50.486Z,16.90
2022-09-11T07:16:20.617Z,18.20
2022-09-11T07:18:49.137Z,17.80
2022-09-11T07:21:20.967Z,19.00
2022-09-11T07:23:54.472Z,19.17
2022-09-11T07:26:24.727Z,18.53
2022-09-11T07:28:52.994Z,17.57
2022-09-11T07:31:26.787Z,16.37
2022-09-11T07:33:54.993Z,17.90
2022-09-11T07:36:25.219Z,19.07
2022-09-11T07:38:54.045Z,17.50
2022-09-11T07:41:24.346Z,18.40
2022-09-11T07:43:55.859Z,18.13
2022-09-11T07:46:26.819Z,16.80
2022-09-11T07:48:56.400Z,17.87
2022-09-11T07:51:25.677Z,17.47
2022-09-11T07:53:57.845Z,16.37
2022-09-11T07:56:28.057Z,15.60
2022-09-11T07:58:56.823Z,16.87
2022-09-11T08:01:29.517Z,16.37
2022-09-11T08:03:59.586Z,16.53
2022-09-11T08:06:31.951Z,15.97
2022-09-11T08:09:01.912Z,17.37
2022-09-11T08:11:32.641Z,16.63
2022-09-11T08:14:01.227Z,17.23
2022-09-11T08:16:30.779Z,15.53
2022-09-11T08:18:59.318Z,15.70
2022-09-11T08:21:27.614Z,15.90
2022-09-11T08:23:55.605Z,15.70
2022-09-11T08:26:26.447Z,15.83
2022-09-11T08:28:56.780Z,12.97
2022-09-11T08:31:28.798Z,15.90
2022-09-11T08:33:58.376Z,15.63
2022-09-11T08:36:26.883Z,14.30
2022-09-11T08:38:55.378Z,15.33
2022-09-11T08:41:41.033Z,15.03
2022-09-11T08:44:18.898Z,14.20
2022-09-11T08:46:54.265Z,15.10
2022-09-11T08:49:27.988Z,14.27
2022-09-11T08:52:02.620Z,14.80
2022-09-11T08:54:34.990Z,14.33
2022-09-11T08:57:18.209Z,14.63
2022-09-11T09:00:10.381Z,15.50
2022-09-11T09:03:02.554Z,14.20
2022-09-11T09:05:43.275Z,13.47
2022-09-11T09:08:40.406Z,13.83
2022-09-11T09:11:25.300Z,14.30
2022-09-11T09:14:23.043Z,14.30
2022-09-11T09:17:00.781Z,14.03
2022-09-11T09:19:35.630Z,14.13
2022-09-11T09:22:15.198Z,14.33
2022-09-11T09:24:48.479Z,14.50
2022-09-11T09:27:20.500Z,13.53
2022-09-11T09:29:54.692Z,13.53
2022-09-11T09:32:30.962Z,13.27
2022-09-11T09:35:06.032Z,12.97
2022-09-11T09:37:37.242Z,12.77
2022-09-11T09:40:10.834Z,12.47
2022-09-11T09:43:11.055Z,12.60
2022-09-11T09:45:57.241Z,11.43
2022-09-11T09:48:25.987Z,11.73
2022-09-11T09:50:53.767Z,11.70
2022-09-11T09:53:32.951Z,11.93
2022-09-11T09:56:01.661Z,12.27
2022-09-11T09:58:41.728Z,12.67
2022-09-11T10:01:45.059Z,11.57
2022-09-11T10:04:18.485Z,11.70
2022-09-11T10:06:49.675Z,11.93
2022-09-11T10:09:26.547Z,12.97
2022-09-11T10:12:03.334Z,11.73
2022-09-11T10:14:51.264Z,11.83
2022-09-11T10:17:31.259Z,11.73
2022-09-11T10:20:22.896Z,11.87
2022-09-11T10:22:51.901Z,11.73
2022-09-11T10:25:26.384Z,11.10
2022-09-11T10:28:04.165Z,11.63
2022-09-11T10:30:39.121Z,13.13
2022-09-11T10:33:19.040Z,12.80
2022-09-11T10:35:55.122Z,11.40
2022-09-11T10:38:31.940Z,11.50
2022-09-11T10:41:09.613Z,11.00
2022-09-11T10:43:48.332Z,9.95
2022-09-11T10:46:30.267Z,9.77
2022-09-11T10:49:09.129Z,8.50
2022-09-11T10:51:43.072Z,9.53
2022-09-11T10:54:38.310Z,9.55
2022-09-11T10:57:18.865Z,9.37
2022-09-11T11:00:02.797Z,9.48
2022-09-11T11:02:34.561Z,10.27
2022-09-11T11:05:08.117Z,11.57
2022-09-11T11:08:01.897Z,11.80
2022-09-11T11:10:48.449Z,11.90
2022-09-11T11:13:38.427Z,11.25
2022-09-11T11:16:20.180Z,10.70
2022-09-11T11:19:09.035Z,9.60
2022-09-11T11:21:55.748Z,10.40
2022-09-11T11:24:47.606Z,9.80
2022-09-11T11:27:55.866Z,10.53
2022-09-11T11:30:32.204Z,10.47
2022-09-11T11:33:25.253Z,9.47
2022-09-11T11:36:05.261Z,9.13
2022-09-11T11:38:42.253Z,8.50
2022-09-11T11:41:19.767Z,7.88
2022-09-11T11:43:52.047Z,5.97
2022-09-11T11:46:30.911Z,5.70
2022-09-11T11:49:02.880Z,6.97
2022-09-11T11:51:41.903Z,7.43
2022-09-11T11:54:18.323Z,7.40
2022-09-11T11:56:51.691Z,7.45
2022-09-11T11:59:31.197Z,6.75
2022-09-11T12:02:12.054Z,8.35
2022-09-11T12:04:48.783Z,7.03
2022-09-11T12:07:28.242Z,7.05
2022-09-11T12:09:59.070Z,6.80
2022-09-11T12:12:31.171Z,8.45
2022-09-11T12:15:07.399Z,6.47
2022-09-11T12:17:39.862Z,6.22
2022-09-11T12:20:39.124Z,6.55
2022-09-11T12:23:35.318Z,6.15
2022-09-11T12:26:22.119Z,6.53
2022-09-11T12:28:51.571Z,6.57
2022-09-11T12:31:19.754Z,6.03
2022-09-11T12:33:56.297Z,5.95
2022-09-11T12:36:53.823Z,6.03
2022-09-11T12:39:32.463Z,6.10
2022-09-11T12:42:48.629Z,4.43
2022-09-11T12:45:38.399Z,4.45
2022-09-11T12:48:11.319Z,4.68
2022-09-11T12:50:49.333Z,4.03
2022-09-11T12:53:24.828Z,3.97
2022-09-11T12:55:59.712Z,4.32
2022-09-11T12:58:34.888Z,4.35
2022-09-11T13:01:08.530Z,4.55
2022-09-11T13:03:38.602Z,4.60
2022-09-11T13:06:13.661Z,4.45
2022-09-11T13:08:50.694Z,4.70
2022-09-11T13:11:41.141Z,5.13
2022-09-11T13:14:47.120Z,5.63
2022-09-11T13:17:25.715Z,4.85
2022-09-11T13:19:57.604Z,6.10
2022-09-11T13:22:31.211Z,5.18
2022-09-11T13:25:14.296Z,5.53
2022-09-11T13:27:46.342Z,5.22
2022-09-11T13:30:17.682Z,5.70
2022-09-11T13:32:48.984Z,5.65
2022-09-11T13:35:22.840Z,6.25
2022-09-11T13:37:59.432Z,5.35
2022-09-11T13:40:35.632Z,4.63
2022-09-11T13:43:05.005Z,5.30
2022-09-11T13:45:32.950Z,4.43
2022-09-11T13:48:00.838Z,4.10
2022-09-11T13:50:28.689Z,4.70
2022-09-11T13:52:58.441Z,3.92
2022-09-11T13:55:27.762Z,3.10
2022-09-11T13:57:59.223Z,3.00
2022-09-11T14:00:45.798Z,2.92
2022-09-11T14:03:24.832Z,3.40
2022-09-11T14:05:55.972Z,3.08
2022-09-11T14:08:34.269Z,2.92
2022-09-11T14:11:11.246Z,3.22
2022-09-11T14:13:47.569Z,3.05
2022-09-11T14:16:25.304Z,3.30
2022-09-11T14:18:59.456Z,3.03
2022-09-11T14:21:34.300Z,3.00
2022-09-11T14:24:07.465Z,3.10
2022-09-11T14:26:42.420Z,3.22
2022-09-11T14:29:25.175Z,3.40
2022-09-11T14:31:54.246Z,2.78
2022-09-11T14:34:27.513Z,2.70
2022-09-11T14:37:03.584Z,2.50
2022-09-11T14:39:39.991Z,2.78
2022-09-11T14:42:09.747Z,2.53
2022-09-11T14:44:40.322Z,2.65
2022-09-11T14:47:15.502Z,3.15
2022-09-11T14:49:43.236Z,3.38
2022-09-11T14:52:15.194Z,3.10
2022-09-11T14:54:44.708Z,3.05
2022-09-11T14:57:19.788Z,2.67
2022-09-11T14:59:48.486Z,3.00
2022-09-11T15:02:20.879Z,3.63
2022-09-11T15:04:49.318Z,3.80
2022-09-11T15:07:19.745Z,3.72
2022-09-11T15:09:48.849Z,4.10
2022-09-11T15:12:17.591Z,4.18
2022-09-11T15:14:56.544Z,4.65
2022-09-11T15:17:31.362Z,4.97
2022-09-11T15:20:00.571Z,5.27
2022-09-11T15:22:29.097Z,4.20
2022-09-11T15:25:00.316Z,4.13
2022-09-11T15:27:28.388Z,3.97
2022-09-11T15:29:56.444Z,4.10
2022-09-11T15:32:24.320Z,4.05
2022-09-11T15:34:53.965Z,3.55
2022-09-11T15:37:21.901Z,3.90
2022-09-11T15:39:50.687Z,3.97
2022-09-11T15:42:20.346Z,4.30
2022-09-11T15:44:48.119Z,5.00
2022-09-11T15:47:16.550Z,3.05
2022-09-11T15:49:47.600Z,3.13
2022-09-11T15:52:15.994Z,3.22
2022-09-11T15:54:45.646Z,2.90
2022-09-11T15:57:13.418Z,3.47
2022-09-11T15:59:43.046Z,2.60
2022-09-11T16:02:12.517Z,2.50
2022-09-11T16:04:40.446Z,2.50
2022-09-11T16:07:08.294Z,2.20
2022-09-11T16:09:36.225Z,1.93
2022-09-11T16:12:04.944Z,2.00
2022-09-11T16:14:37.773Z,2.20
2022-09-11T16:17:09.170Z,1.80
2022-09-11T16:19:38.609Z,1.60
2022-09-11T16:22:08.828Z,2.00
2022-09-11T16:24:38.066Z,1.73
2022-09-11T16:27:10.223Z,2.07
2022-09-11T16:30:15.443Z,3.63
2022-09-11T16:32:34.066Z,2.07
2022-09-11T16:35:01.847Z,2.13
2022-09-11T16:37:34.005Z,2.20
2022-09-11T16:40:04.059Z,1.83
2022-09-11T16:42:32.367Z,1.80
2022-09-11T16:45:00.157Z,2.10
2022-09-11T16:47:30.348Z,2.00
2022-09-11T16:50:13.328Z,1.97
2022-09-11T16:52:41.127Z,1.80
2022-09-11T16:55:10.525Z,1.40
2022-09-11T16:57:38.634Z,1.90
2022-09-11T17:00:08.921Z,1.90
2022-09-11T17:02:38.533Z,4.73
2022-09-11T17:05:06.911Z,2.10
2022-09-11T17:07:35.432Z,2.30
2022-09-11T17:10:03.456Z,2.10
2022-09-11T17:12:31.270Z,2.10
2022-09-11T17:14:59.059Z,2.20
2022-09-11T17:17:26.940Z,2.03
2022-09-11T17:19:58.357Z,2.00
2022-09-11T17:22:26.906Z,2.10
2022-09-11T17:24:54.715Z,2.30
2022-09-11T17:27:23.202Z,2.20
2022-09-11T17:29:51.124Z,2.50
2022-09-11T17:32:29.182Z,2.20
2022-09-11T17:34:59.344Z,1.93
2022-09-11T17:37:28.291Z,2.07
2022-09-11T17:39:57.888Z,2.07
2022-09-11T17:42:28.650Z,2.20
2022-09-11T17:44:56.499Z,2.40
2022-09-11T17:47:24.349Z,2.87
2022-09-11T17:49:52.298Z,3.13
2022-09-11T17:52:21.430Z,3.30
2022-09-11T17:54:49.279Z,2.83
2022-09-11T17:57:17.112Z,3.10
2022-09-11T17:59:44.971Z,3.13
2022-09-11T18:02:15.307Z,3.87
2022-09-11T18:04:44.218Z,4.30
2022-09-11T18:07:12.221Z,3.87
2022-09-11T18:09:41.416Z,4.00
2022-09-11T18:12:10.029Z,3.77
2022-09-11T18:14:39.044Z,5.10
2022-09-11T18:17:07.111Z,4.27
2022-09-11T18:19:34.937Z,4.50
2022-09-11T18:22:02.761Z,6.63
2022-09-11T18:24:31.230Z,4.10
2022-09-11T18:27:01.216Z,4.17
2022-09-11T18:29:30.640Z,4.60
2022-09-11T18:31:59.874Z,4.47
2022-09-11T18:34:29.187Z,4.57
2022-09-11T18:36:57.012Z,4.63
2022-09-11T18:39:25.240Z,4.77
2022-09-11T18:41:53.449Z,4.80
2022-09-11T18:44:25.180Z,5.93
2022-09-11T18:46:54.923Z,6.33
2022-09-11T18:49:23.549Z,39.60
2022-09-11T18:51:53.688Z,7.10
2022-09-11T18:54:22.548Z,9.07
2022-09-11T18:56:51.530Z,9.03
2022-09-11T18:59:20.462Z,6.83
2022-09-11T19:01:49.769Z,12.00
2022-09-11T19:04:18.978Z,10.67
2022-09-11T19:06:46.902Z,57.33
2022-09-11T19:09:15.493Z,19.83
2022-09-11T19:11:43.564Z,12.63
2022-09-11T19:14:14.220Z,11.47
2022-09-11T19:16:42.781Z,11.17
2022-09-11T19:19:11.896Z,8.20
2022-09-11T19:21:39.817Z,8.77
2022-09-11T19:24:08.509Z,12.27
2022-09-11T19:26:39.878Z,42.97
2022-09-11T19:29:09.027Z,27.20
2022-09-11T19:31:39.350Z,15.73
2022-09-11T19:34:09.577Z,11.80
2022-09-11T19:36:38.872Z,22.57
2022-09-11T19:39:07.430Z,24.33
2022-09-11T19:41:38.623Z,25.27
2022-09-11T19:44:09.097Z,33.17
2022-09-11T19:46:38.345Z,26.27
2022-09-11T19:49:07.723Z,22.13
2022-09-11T19:51:40.889Z,12.20
2022-09-11T19:54:11.165Z,8.30
2022-09-11T19:56:40.072Z,7.37
2022-09-11T19:59:09.571Z,10.30
2022-09-11T20:01:37.580Z,9.27
2022-09-11T20:04:06.277Z,13.77
2022-09-11T20:06:36.263Z,7.90
2022-09-11T20:09:29.829Z,14.10
2022-09-11T20:11:55.196Z,8.13
2022-09-11T20:14:23.290Z,7.43
2022-09-11T20:16:51.062Z,7.60
2022-09-11T20:19:20.523Z,8.10
2022-09-11T20:21:48.321Z,7.20
2022-09-11T20:24:17.431Z,6.90
2022-09-11T20:26:45.305Z,6.60
2022-09-11T20:29:15.763Z,9.27
2022-09-11T20:31:48.883Z,10.73
2022-09-11T20:34:19.628Z,9.53
2022-09-11T20:36:48.092Z,7.23
2022-09-11T20:39:17.472Z,9.33
2022-09-11T20:41:46.676Z,14.83
2022-09-11T20:44:14.540Z,13.60
2022-09-11T20:46:43.632Z,16.40
2022-09-11T20:49:12.356Z,18.00
2022-09-11T20:51:42.475Z,18.33
2022-09-11T20:54:10.781Z,9.27
2022-09-11T20:56:40.560Z,16.33
2022-09-11T20:59:08.686Z,8.83
2022-09-11T21:01:39.982Z,7.53
2022-09-11T21:04:11.363Z,5.53
2022-09-11T21:06:41.581Z,11.70
2022-09-11T21:09:12.361Z,13.63
2022-09-11T21:11:43.350Z,13.33
2022-09-11T21:14:12.322Z,15.70
2022-09-11T21:16:40.369Z,13.20
2022-09-11T21:19:09.544Z,5.50
2022-09-11T21:21:39.995Z,5.53
2022-09-11T21:24:12.237Z,9.23
2022-09-11T21:26:42.762Z,7.63
2022-09-11T21:29:13.951Z,16.10
2022-09-11T21:31:41.920Z,6.77
2022-09-11T21:34:11.329Z,18.33
2022-09-11T21:36:39.379Z,10.83
2022-09-11T21:39:07.415Z,27.30
2022-09-11T21:41:35.531Z,12.13
2022-09-11T21:44:05.196Z,13.57
2022-09-11T21:46:33.198Z,20.17
2022-09-11T21:49:01.770Z,25.03
2022-09-11T21:51:31.014Z,30.93
2022-09-11T21:54:01.666Z,24.13
2022-09-11T21:56:33.476Z,18.87
2022-09-11T21:59:02.010Z,12.77
2022-09-11T22:01:32.819Z,11.97
2022-09-11T22:04:01.713Z,10.20
2022-09-11T22:06:31.017Z,14.93
2022-09-11T22:09:01.537Z,16.90
2022-09-11T22:11:32.672Z,9.10
2022-09-11T22:14:00.511Z,6.00
2022-09-11T22:16:29.013Z,38.13
2022-09-11T22:18:58.156Z,23.70
2022-09-11T22:21:26.004Z,15.37
2022-09-11T22:23:55.025Z,5.70
2022-09-11T22:26:24.404Z,4.57
2022-09-11T22:28:52.943Z,5.40
2022-09-11T22:31:24.850Z,4.33
2022-09-11T22:33:55.007Z,4.73
2022-09-11T22:36:27.472Z,6.90
2022-09-11T22:38:56.358Z,9.23
2022-09-11T22:41:24.749Z,6.23
2022-09-11T22:43:52.589Z,5.13
2022-09-11T22:46:21.618Z,4.03
2022-09-11T22:48:49.650Z,4.57
2022-09-11T22:51:17.755Z,6.43
2022-09-11T22:53:47.233Z,7.00
2022-09-11T22:56:15.650Z,9.47
2022-09-11T22:58:43.970Z,6.10
2022-09-11T23:01:19.670Z,6.33
2022-09-11T23:03:49.873Z,4.03
2022-09-11T23:06:35.673Z,4.23
2022-09-11T23:09:06.845Z,4.87
2022-09-11T23:11:34.784Z,4.90
2022-09-11T23:14:02.624Z,9.40
2022-09-11T23:16:31.433Z,9.20
2022-09-11T23:19:02.091Z,5.03
2022-09-11T23:21:32.925Z,10.83
2022-09-11T23:24:01.983Z,13.43
2022-09-11T23:26:34.246Z,3.70
2022-09-11T23:29:02.114Z,3.87
2022-09-11T23:31:35.005Z,12.67
2022-09-11T23:34:06.251Z,3.10
2022-09-11T23:36:37.369Z,4.67
2022-09-11T23:39:05.756Z,5.67
2022-09-11T23:41:34.956Z,5.83
2022-09-11T23:44:03.858Z,6.23
2022-09-11T23:46:31.969Z,7.30
2022-09-11T23:48:59.808Z,8.03
2022-09-11T23:51:27.749Z,13.13
2022-09-11T23:53:55.514Z,7.27
2022-09-11T23:56:23.380Z,12.60
2022-09-11T23:58:52.458Z,16.63
